Long Bennington, United Kingdom
Current Conditions -  °F | °C
As of 6:50 PM on Thursday 18 Dec 2014 (Local Time) from EGYD Reporting Station
Broken Clouds Broken Clouds  
Wind Chill: 13°   Ceiling: 13000
Heat Index: 13°   Visibility: 6mi
Dew Point: 10°   Wind: 25mph
Humidity: 82%   Direction: 250°WSW
Pressure: 29.65"   Gusts: NA
Location:  52.99°N, 0.76°W
Report Text: EGYD 181850Z AUTO 25022KT 9999 // FEW018/// SCT023/// BKN130/// 13/10 Q1004
Loading
Personal Weather Stations






























Interactive Weather Map New forecast layout! Learn more

10-Day Weather Forecast

Advertisements
Track Severe Weather on mobile